sensor_id;sensor_type;location;lat;lon;timestamp;temperature;humidity
71206;SHT31;58935;54.498;18.544;2024-02-21T00:01:03;6.37;81.36
71206;SHT31;58935;54.498;18.544;2024-02-21T00:03:31;6.36;81.31
71206;SHT31;58935;54.498;18.544;2024-02-21T00:05:57;6.38;81.34
71206;SHT31;58935;54.498;18.544;2024-02-21T00:08:23;6.37;81.38
71206;SHT31;58935;54.498;18.544;2024-02-21T00:10:54;6.37;81.42
71206;SHT31;58935;54.498;18.544;2024-02-21T00:13:22;6.38;81.49
71206;SHT31;58935;54.498;18.544;2024-02-21T00:15:47;6.39;81.50
71206;SHT31;58935;54.498;18.544;2024-02-21T00:18:13;6.39;81.52
71206;SHT31;58935;54.498;18.544;2024-02-21T00:20:38;6.41;81.60
71206;SHT31;58935;54.498;18.544;2024-02-21T00:23:04;6.43;81.56
71206;SHT31;58935;54.498;18.544;2024-02-21T00:25:29;6.46;81.45
71206;SHT31;58935;54.498;18.544;2024-02-21T00:27:55;6.47;81.24
71206;SHT31;58935;54.498;18.544;2024-02-21T00:30:20;6.48;81.14
71206;SHT31;58935;54.498;18.544;2024-02-21T00:32:46;6.44;81.08
71206;SHT31;58935;54.498;18.544;2024-02-21T00:35:12;6.44;81.06
71206;SHT31;58935;54.498;18.544;2024-02-21T00:37:39;6.42;81.12
71206;SHT31;58935;54.498;18.544;2024-02-21T00:40:04;6.41;81.22
71206;SHT31;58935;54.498;18.544;2024-02-21T00:42:31;6.39;81.40
71206;SHT31;58935;54.498;18.544;2024-02-21T00:44:59;6.38;81.63
71206;SHT31;58935;54.498;18.544;2024-02-21T00:47:27;6.37;82.10
71206;SHT31;58935;54.498;18.544;2024-02-21T00:49:52;6.35;82.34
71206;SHT31;58935;54.498;18.544;2024-02-21T00:52:17;6.32;82.63
71206;SHT31;58935;54.498;18.544;2024-02-21T00:54:46;6.32;82.91
71206;SHT31;58935;54.498;18.544;2024-02-21T00:57:15;6.32;83.09
71206;SHT31;58935;54.498;18.544;2024-02-21T00:59:40;6.31;83.40
71206;SHT31;58935;54.498;18.544;2024-02-21T01:02:08;6.30;83.64
71206;SHT31;58935;54.498;18.544;2024-02-21T01:04:34;6.31;83.74
71206;SHT31;58935;54.498;18.544;2024-02-21T01:07:02;6.30;83.90
71206;SHT31;58935;54.498;18.544;2024-02-21T01:09:27;6.30;84.07
71206;SHT31;58935;54.498;18.544;2024-02-21T01:11:53;6.32;84.13
71206;SHT31;58935;54.498;18.544;2024-02-21T01:14:18;6.31;84.24
71206;SHT31;58935;54.498;18.544;2024-02-21T01:16:44;6.33;84.27
71206;SHT31;58935;54.498;18.544;2024-02-21T01:19:09;6.35;84.28
71206;SHT31;58935;54.498;18.544;2024-02-21T01:21:34;6.38;84.29
71206;SHT31;58935;54.498;18.544;2024-02-21T01:24:00;6.40;84.27
71206;SHT31;58935;54.498;18.544;2024-02-21T01:26:25;6.41;84.31
71206;SHT31;58935;54.498;18.544;2024-02-21T01:28:50;6.42;84.40
71206;SHT31;58935;54.498;18.544;2024-02-21T01:31:16;6.44;84.43
71206;SHT31;58935;54.498;18.544;2024-02-21T01:33:41;6.46;84.47
71206;SHT31;58935;54.498;18.544;2024-02-21T01:36:07;6.47;84.54
71206;SHT31;58935;54.498;18.544;2024-02-21T01:38:33;6.47;84.67
71206;SHT31;58935;54.498;18.544;2024-02-21T01:40:59;6.47;84.78
71206;SHT31;58935;54.498;18.544;2024-02-21T01:43:24;6.47;84.80
71206;SHT31;58935;54.498;18.544;2024-02-21T01:45:50;6.48;84.82
71206;SHT31;58935;54.498;18.544;2024-02-21T01:48:21;6.49;84.88
71206;SHT31;58935;54.498;18.544;2024-02-21T01:50:49;6.50;84.95
71206;SHT31;58935;54.498;18.544;2024-02-21T01:53:17;6.51;85.00
71206;SHT31;58935;54.498;18.544;2024-02-21T01:55:50;6.51;85.07
71206;SHT31;58935;54.498;18.544;2024-02-21T01:58:16;6.53;85.10
71206;SHT31;58935;54.498;18.544;2024-02-21T02:00:44;6.54;85.18
71206;SHT31;58935;54.498;18.544;2024-02-21T02:03:12;6.56;85.21
71206;SHT31;58935;54.498;18.544;2024-02-21T02:05:43;6.57;85.21
71206;SHT31;58935;54.498;18.544;2024-02-21T02:08:13;6.60;85.19
71206;SHT31;58935;54.498;18.544;2024-02-21T02:10:41;6.63;85.20
71206;SHT31;58935;54.498;18.544;2024-02-21T02:13:10;6.63;85.14
71206;SHT31;58935;54.498;18.544;2024-02-21T02:15:40;6.64;85.13
71206;SHT31;58935;54.498;18.544;2024-02-21T02:18:08;6.64;85.18
71206;SHT31;58935;54.498;18.544;2024-02-21T02:20:35;6.65;85.21
71206;SHT31;58935;54.498;18.544;2024-02-21T02:23:04;6.65;85.31
71206;SHT31;58935;54.498;18.544;2024-02-21T02:25:36;6.66;85.30
71206;SHT31;58935;54.498;18.544;2024-02-21T02:28:04;6.68;85.30
71206;SHT31;58935;54.498;18.544;2024-02-21T02:30:33;6.70;85.30
71206;SHT31;58935;54.498;18.544;2024-02-21T02:33:03;6.71;85.30
71206;SHT31;58935;54.498;18.544;2024-02-21T02:35:31;6.73;85.30
71206;SHT31;58935;54.498;18.544;2024-02-21T02:38:01;6.75;85.29
71206;SHT31;58935;54.498;18.544;2024-02-21T02:40:28;6.77;85.27
71206;SHT31;58935;54.498;18.544;2024-02-21T02:42:55;6.80;85.30
71206;SHT31;58935;54.498;18.544;2024-02-21T02:45:21;6.82;85.23
71206;SHT31;58935;54.498;18.544;2024-02-21T02:47:49;6.84;85.20
71206;SHT31;58935;54.498;18.544;2024-02-21T02:50:14;6.87;85.20
71206;SHT31;58935;54.498;18.544;2024-02-21T02:52:40;6.89;85.16
71206;SHT31;58935;54.498;18.544;2024-02-21T02:55:06;6.90;85.10
71206;SHT31;58935;54.498;18.544;2024-02-21T02:57:34;6.91;85.08
71206;SHT31;58935;54.498;18.544;2024-02-21T03:00:00;6.92;85.04
71206;SHT31;58935;54.498;18.544;2024-02-21T03:02:31;6.94;85.07
71206;SHT31;58935;54.498;18.544;2024-02-21T03:04:57;6.94;85.04
71206;SHT31;58935;54.498;18.544;2024-02-21T03:07:23;6.96;85.06
71206;SHT31;58935;54.498;18.544;2024-02-21T03:09:50;6.97;85.06
71206;SHT31;58935;54.498;18.544;2024-02-21T03:12:16;6.98;85.07
71206;SHT31;58935;54.498;18.544;2024-02-21T03:14:49;7.01;85.09
71206;SHT31;58935;54.498;18.544;2024-02-21T03:17:16;7.02;85.17
71206;SHT31;58935;54.498;18.544;2024-02-21T03:19:45;7.04;85.08
71206;SHT31;58935;54.498;18.544;2024-02-21T03:22:10;7.05;85.07
71206;SHT31;58935;54.498;18.544;2024-02-21T03:24:35;7.04;85.00
71206;SHT31;58935;54.498;18.544;2024-02-21T03:27:01;7.05;85.05
71206;SHT31;58935;54.498;18.544;2024-02-21T03:29:27;7.05;85.10
71206;SHT31;58935;54.498;18.544;2024-02-21T03:31:52;7.07;85.10
71206;SHT31;58935;54.498;18.544;2024-02-21T03:34:17;7.06;85.09
71206;SHT31;58935;54.498;18.544;2024-02-21T03:36:45;7.07;85.13
71206;SHT31;58935;54.498;18.544;2024-02-21T03:39:10;7.07;85.19
71206;SHT31;58935;54.498;18.544;2024-02-21T03:41:36;7.08;85.17
71206;SHT31;58935;54.498;18.544;2024-02-21T03:44:02;7.08;85.17
71206;SHT31;58935;54.498;18.544;2024-02-21T03:46:27;7.10;85.20
71206;SHT31;58935;54.498;18.544;2024-02-21T03:48:56;7.08;85.18
71206;SHT31;58935;54.498;18.544;2024-02-21T03:51:25;7.10;85.20
71206;SHT31;58935;54.498;18.544;2024-02-21T03:53:51;7.10;85.22
71206;SHT31;58935;54.498;18.544;2024-02-21T03:56:18;7.10;85.26
71206;SHT31;58935;54.498;18.544;2024-02-21T03:58:47;7.10;85.27
71206;SHT31;58935;54.498;18.544;2024-02-21T04:01:16;7.11;85.26
71206;SHT31;58935;54.498;18.544;2024-02-21T04:03:44;7.11;85.29
71206;SHT31;58935;54.498;18.544;2024-02-21T04:06:12;7.11;85.32
71206;SHT31;58935;54.498;18.544;2024-02-21T04:08:38;7.11;85.32
71206;SHT31;58935;54.498;18.544;2024-02-21T04:11:04;7.11;85.34
71206;SHT31;58935;54.498;18.544;2024-02-21T04:13:29;7.12;85.38
71206;SHT31;58935;54.498;18.544;2024-02-21T04:15:54;7.13;85.40
71206;SHT31;58935;54.498;18.544;2024-02-21T04:18:20;7.14;85.40
71206;SHT31;58935;54.498;18.544;2024-02-21T04:20:45;7.14;85.44
71206;SHT31;58935;54.498;18.544;2024-02-21T04:23:11;7.15;85.43
71206;SHT31;58935;54.498;18.544;2024-02-21T04:25:37;7.16;85.45
71206;SHT31;58935;54.498;18.544;2024-02-21T04:28:07;7.18;85.45
71206;SHT31;58935;54.498;18.544;2024-02-21T04:30:34;7.17;85.41
71206;SHT31;58935;54.498;18.544;2024-02-21T04:33:00;7.17;85.40
71206;SHT31;58935;54.498;18.544;2024-02-21T04:35:27;7.18;85.48
71206;SHT31;58935;54.498;18.544;2024-02-21T04:37:53;7.18;85.45
71206;SHT31;58935;54.498;18.544;2024-02-21T04:40:18;7.19;85.49
71206;SHT31;58935;54.498;18.544;2024-02-21T04:42:44;7.19;85.50
71206;SHT31;58935;54.498;18.544;2024-02-21T04:45:09;7.18;85.50
71206;SHT31;58935;54.498;18.544;2024-02-21T04:47:35;7.19;85.50
71206;SHT31;58935;54.498;18.544;2024-02-21T04:50:00;7.19;85.50
71206;SHT31;58935;54.498;18.544;2024-02-21T04:52:26;7.18;85.50
71206;SHT31;58935;54.498;18.544;2024-02-21T04:54:51;7.18;85.50
71206;SHT31;58935;54.498;18.544;2024-02-21T04:57:17;7.17;85.50
71206;SHT31;58935;54.498;18.544;2024-02-21T04:59:43;7.17;85.51
71206;SHT31;58935;54.498;18.544;2024-02-21T05:02:10;7.15;85.54
71206;SHT31;58935;54.498;18.544;2024-02-21T05:04:36;7.15;85.60
71206;SHT31;58935;54.498;18.544;2024-02-21T05:07:03;7.13;85.60
71206;SHT31;58935;54.498;18.544;2024-02-21T05:09:30;7.12;85.60
71206;SHT31;58935;54.498;18.544;2024-02-21T05:11:55;7.13;85.61
71206;SHT31;58935;54.498;18.544;2024-02-21T05:14:21;7.14;85.63
71206;SHT31;58935;54.498;18.544;2024-02-21T05:16:48;7.14;85.66
71206;SHT31;58935;54.498;18.544;2024-02-21T05:19:14;7.14;85.65
71206;SHT31;58935;54.498;18.544;2024-02-21T05:21:41;7.16;85.70
71206;SHT31;58935;54.498;18.544;2024-02-21T05:24:07;7.17;85.67
71206;SHT31;58935;54.498;18.544;2024-02-21T05:26:32;7.17;85.60
71206;SHT31;58935;54.498;18.544;2024-02-21T05:28:57;7.15;85.60
71206;SHT31;58935;54.498;18.544;2024-02-21T05:31:24;7.16;85.58
71206;SHT31;58935;54.498;18.544;2024-02-21T05:33:50;7.16;85.59
71206;SHT31;58935;54.498;18.544;2024-02-21T05:36:15;7.15;85.52
71206;SHT31;58935;54.498;18.544;2024-02-21T05:38:43;7.15;85.55
71206;SHT31;58935;54.498;18.544;2024-02-21T05:41:08;7.13;85.50
71206;SHT31;58935;54.498;18.544;2024-02-21T05:43:34;7.14;85.60
71206;SHT31;58935;54.498;18.544;2024-02-21T05:45:59;7.13;85.57
71206;SHT31;58935;54.498;18.544;2024-02-21T05:48:25;7.22;86.10
71206;SHT31;58935;54.498;18.544;2024-02-21T05:50:50;7.29;85.76
71206;SHT31;58935;54.498;18.544;2024-02-21T05:53:15;7.32;85.62
71206;SHT31;58935;54.498;18.544;2024-02-21T05:55:41;7.41;85.59
71206;SHT31;58935;54.498;18.544;2024-02-21T05:58:09;7.45;85.16
71206;SHT31;58935;54.498;18.544;2024-02-21T06:00:38;7.48;85.04
71206;SHT31;58935;54.498;18.544;2024-02-21T06:03:04;7.48;84.57
71206;SHT31;58935;54.498;18.544;2024-02-21T06:05:30;7.44;84.38
71206;SHT31;58935;54.498;18.544;2024-02-21T06:07:56;7.42;84.39
71206;SHT31;58935;54.498;18.544;2024-02-21T06:10:22;7.39;84.40
71206;SHT31;58935;54.498;18.544;2024-02-21T06:12:50;7.37;84.39
71206;SHT31;58935;54.498;18.544;2024-02-21T06:15:17;7.35;84.39
71206;SHT31;58935;54.498;18.544;2024-02-21T06:17:42;7.34;84.41
71206;SHT31;58935;54.498;18.544;2024-02-21T06:20:08;7.32;84.42
71206;SHT31;58935;54.498;18.544;2024-02-21T06:22:34;7.31;84.40
71206;SHT31;58935;54.498;18.544;2024-02-21T06:24:59;7.32;84.39
71206;SHT31;58935;54.498;18.544;2024-02-21T06:27:24;7.32;84.38
71206;SHT31;58935;54.498;18.544;2024-02-21T06:29:50;7.31;84.30
71206;SHT31;58935;54.498;18.544;2024-02-21T06:32:16;7.30;84.30
71206;SHT31;58935;54.498;18.544;2024-02-21T06:34:41;7.30;84.30
71206;SHT31;58935;54.498;18.544;2024-02-21T06:37:06;7.30;84.30
71206;SHT31;58935;54.498;18.544;2024-02-21T06:39:32;7.30;84.28
71206;SHT31;58935;54.498;18.544;2024-02-21T06:41:57;7.30;84.20
71206;SHT31;58935;54.498;18.544;2024-02-21T06:44:22;7.31;84.19
71206;SHT31;58935;54.498;18.544;2024-02-21T06:46:48;7.32;84.20
71206;SHT31;58935;54.498;18.544;2024-02-21T06:49:13;7.35;84.20
71206;SHT31;58935;54.498;18.544;2024-02-21T06:51:42;7.37;84.20
71206;SHT31;58935;54.498;18.544;2024-02-21T06:54:08;7.39;84.15
71206;SHT31;58935;54.498;18.544;2024-02-21T06:56:35;7.41;84.08
71206;SHT31;58935;54.498;18.544;2024-02-21T06:59:02;7.43;84.10
71206;SHT31;58935;54.498;18.544;2024-02-21T07:01:29;7.46;84.08
71206;SHT31;58935;54.498;18.544;2024-02-21T07:03:55;7.48;83.96
71206;SHT31;58935;54.498;18.544;2024-02-21T07:06:21;7.52;83.91
71206;SHT31;58935;54.498;18.544;2024-02-21T07:08:46;7.55;83.83
71206;SHT31;58935;54.498;18.544;2024-02-21T07:11:12;7.57;83.78
71206;SHT31;58935;54.498;18.544;2024-02-21T07:13:40;7.59;83.69
71206;SHT31;58935;54.498;18.544;2024-02-21T07:16:08;7.62;83.60
71206;SHT31;58935;54.498;18.544;2024-02-21T07:18:33;7.64;83.51
71206;SHT31;58935;54.498;18.544;2024-02-21T07:20:59;7.66;83.40
71206;SHT31;58935;54.498;18.544;2024-02-21T07:23:24;7.68;83.41
71206;SHT31;58935;54.498;18.544;2024-02-21T07:25:50;7.72;83.35
71206;SHT31;58935;54.498;18.544;2024-02-21T07:28:18;7.74;83.38
71206;SHT31;58935;54.498;18.544;2024-02-21T07:30:44;7.76;83.23
71206;SHT31;58935;54.498;18.544;2024-02-21T07:33:11;7.78;83.20
71206;SHT31;58935;54.498;18.544;2024-02-21T07:35:37;7.81;83.19
71206;SHT31;58935;54.498;18.544;2024-02-21T07:38:06;7.83;83.13
71206;SHT31;58935;54.498;18.544;2024-02-21T07:40:32;7.86;83.07
71206;SHT31;58935;54.498;18.544;2024-02-21T07:42:58;7.88;83.00
71206;SHT31;58935;54.498;18.544;2024-02-21T07:45:25;7.89;83.01
71206;SHT31;58935;54.498;18.544;2024-02-21T07:47:51;7.91;83.01
71206;SHT31;58935;54.498;18.544;2024-02-21T07:50:17;7.91;83.00
71206;SHT31;58935;54.498;18.544;2024-02-21T07:52:42;7.93;83.00
71206;SHT31;58935;54.498;18.544;2024-02-21T07:55:10;7.93;83.02
71206;SHT31;58935;54.498;18.544;2024-02-21T07:57:36;7.93;83.05
71206;SHT31;58935;54.498;18.544;2024-02-21T08:00:02;7.93;83.12
71206;SHT31;58935;54.498;18.544;2024-02-21T08:02:29;7.93;83.22
71206;SHT31;58935;54.498;18.544;2024-02-21T08:04:57;7.93;83.33
71206;SHT31;58935;54.498;18.544;2024-02-21T08:07:25;7.93;83.39
71206;SHT31;58935;54.498;18.544;2024-02-21T08:09:54;7.92;83.40
71206;SHT31;58935;54.498;18.544;2024-02-21T08:12:19;7.94;83.52
71206;SHT31;58935;54.498;18.544;2024-02-21T08:14:45;7.95;83.56
71206;SHT31;58935;54.498;18.544;2024-02-21T08:17:10;7.97;83.67
71206;SHT31;58935;54.498;18.544;2024-02-21T08:19:35;8.01;83.67
71206;SHT31;58935;54.498;18.544;2024-02-21T08:22:03;8.04;83.68
71206;SHT31;58935;54.498;18.544;2024-02-21T08:24:29;8.08;83.68
71206;SHT31;58935;54.498;18.544;2024-02-21T08:26:54;8.11;83.62
71206;SHT31;58935;54.498;18.544;2024-02-21T08:29:21;8.15;83.51
71206;SHT31;58935;54.498;18.544;2024-02-21T08:31:53;8.18;83.49
71206;SHT31;58935;54.498;18.544;2024-02-21T08:34:21;8.20;83.41
71206;SHT31;58935;54.498;18.544;2024-02-21T08:36:49;8.23;83.34
71206;SHT31;58935;54.498;18.544;2024-02-21T08:39:17;8.26;83.33
71206;SHT31;58935;54.498;18.544;2024-02-21T08:41:44;8.30;83.18
71206;SHT31;58935;54.498;18.544;2024-02-21T08:44:10;8.31;83.10
71206;SHT31;58935;54.498;18.544;2024-02-21T08:46:35;8.33;83.07
71206;SHT31;58935;54.498;18.544;2024-02-21T08:49:03;8.35;82.97
71206;SHT31;58935;54.498;18.544;2024-02-21T08:51:28;8.35;82.91
71206;SHT31;58935;54.498;18.544;2024-02-21T08:53:54;8.36;82.80
71206;SHT31;58935;54.498;18.544;2024-02-21T08:56:20;8.38;82.72
71206;SHT31;58935;54.498;18.544;2024-02-21T08:58:47;8.38;82.64
71206;SHT31;58935;54.498;18.544;2024-02-21T09:01:13;8.40;82.63
71206;SHT31;58935;54.498;18.544;2024-02-21T09:03:38;8.43;82.58
71206;SHT31;58935;54.498;18.544;2024-02-21T09:06:07;8.44;82.48
71206;SHT31;58935;54.498;18.544;2024-02-21T09:08:35;8.44;82.40
71206;SHT31;58935;54.498;18.544;2024-02-21T09:14:41;8.44;82.17
71206;SHT31;58935;54.498;18.544;2024-02-21T09:17:10;8.42;82.08
71206;SHT31;58935;54.498;18.544;2024-02-21T09:19:35;8.41;82.17
71206;SHT31;58935;54.498;18.544;2024-02-21T09:27:15;8.43;82.42
71206;SHT31;58935;54.498;18.544;2024-02-21T09:29:40;8.47;82.48
71206;SHT31;58935;54.498;18.544;2024-02-21T09:35:27;8.55;82.65
71206;SHT31;58935;54.498;18.544;2024-02-21T09:37:58;8.58;82.62
71206;SHT31;58935;54.498;18.544;2024-02-21T09:40:24;8.62;82.70
71206;SHT31;58935;54.498;18.544;2024-02-21T09:42:50;8.66;82.71
71206;SHT31;58935;54.498;18.544;2024-02-21T09:45:29;8.70;82.70
71206;SHT31;58935;54.498;18.544;2024-02-21T09:50:41;8.73;82.55
71206;SHT31;58935;54.498;18.544;2024-02-21T09:55:47;8.79;82.79
71206;SHT31;58935;54.498;18.544;2024-02-21T09:58:17;8.83;82.69
71206;SHT31;58935;54.498;18.544;2024-02-21T10:00:52;8.85;82.47
71206;SHT31;58935;54.498;18.544;2024-02-21T10:03:22;8.84;82.34
71206;SHT31;58935;54.498;18.544;2024-02-21T10:05:48;8.86;82.43
71206;SHT31;58935;54.498;18.544;2024-02-21T10:08:15;8.91;82.49
71206;SHT31;58935;54.498;18.544;2024-02-21T10:10:45;8.98;82.44
71206;SHT31;58935;54.498;18.544;2024-02-21T10:13:21;9.07;82.45
71206;SHT31;58935;54.498;18.544;2024-02-21T10:18:27;9.25;81.98
71206;SHT31;58935;54.498;18.544;2024-02-21T10:23:26;9.39;81.47
71206;SHT31;58935;54.498;18.544;2024-02-21T10:25:51;9.44;81.18
71206;SHT31;58935;54.498;18.544;2024-02-21T10:28:18;9.48;81.04
71206;SHT31;58935;54.498;18.544;2024-02-21T10:30:50;9.54;81.19
71206;SHT31;58935;54.498;18.544;2024-02-21T10:33:17;9.60;80.98
71206;SHT31;58935;54.498;18.544;2024-02-21T10:35:46;9.65;80.95
71206;SHT31;58935;54.498;18.544;2024-02-21T10:38:12;9.67;80.45
71206;SHT31;58935;54.498;18.544;2024-02-21T10:40:38;9.70;80.14
71206;SHT31;58935;54.498;18.544;2024-02-21T10:43:03;9.74;79.98
71206;SHT31;58935;54.498;18.544;2024-02-21T10:45:39;9.74;80.00
71206;SHT31;58935;54.498;18.544;2024-02-21T10:48:08;9.79;79.95
71206;SHT31;58935;54.498;18.544;2024-02-21T10:53:20;9.85;79.53
71206;SHT31;58935;54.498;18.544;2024-02-21T10:58:37;9.76;79.30
71206;SHT31;58935;54.498;18.544;2024-02-21T11:01:04;9.71;79.28
71206;SHT31;58935;54.498;18.544;2024-02-21T11:03:31;9.67;79.49
71206;SHT31;58935;54.498;18.544;2024-02-21T11:05:57;9.64;79.63
71206;SHT31;58935;54.498;18.544;2024-02-21T11:08:24;9.59;79.59
71206;SHT31;58935;54.498;18.544;2024-02-21T11:26:20;9.32;80.36
71206;SHT31;58935;54.498;18.544;2024-02-21T11:28:55;9.29;80.48
71206;SHT31;58935;54.498;18.544;2024-02-21T11:31:24;9.27;80.65
71206;SHT31;58935;54.498;18.544;2024-02-21T11:33:52;9.29;80.64
71206;SHT31;58935;54.498;18.544;2024-02-21T11:38:51;9.34;80.62
71206;SHT31;58935;54.498;18.544;2024-02-21T11:41:20;9.37;80.65
71206;SHT31;58935;54.498;18.544;2024-02-21T11:43:48;9.38;80.45
71206;SHT31;58935;54.498;18.544;2024-02-21T11:46:15;9.39;80.41
71206;SHT31;58935;54.498;18.544;2024-02-21T11:48:44;9.43;80.41
71206;SHT31;58935;54.498;18.544;2024-02-21T11:51:20;9.46;80.45
71206;SHT31;58935;54.498;18.544;2024-02-21T11:53:52;9.48;80.33
71206;SHT31;58935;54.498;18.544;2024-02-21T11:56:18;9.54;80.23
71206;SHT31;58935;54.498;18.544;2024-02-21T11:58:48;9.57;80.13
71206;SHT31;58935;54.498;18.544;2024-02-21T12:01:14;9.65;80.16
71206;SHT31;58935;54.498;18.544;2024-02-21T12:03:43;9.79;80.20
71206;SHT31;58935;54.498;18.544;2024-02-21T12:06:15;9.93;79.48
71206;SHT31;58935;54.498;18.544;2024-02-21T12:08:45;10.06;78.88
71206;SHT31;58935;54.498;18.544;2024-02-21T12:11:19;10.16;78.06
71206;SHT31;58935;54.498;18.544;2024-02-21T12:16:23;10.35;76.54
71206;SHT31;58935;54.498;18.544;2024-02-21T12:18:49;10.44;76.37
71206;SHT31;58935;54.498;18.544;2024-02-21T12:23:55;10.57;74.78
71206;SHT31;58935;54.498;18.544;2024-02-21T12:26:29;10.64;74.60
71206;SHT31;58935;54.498;18.544;2024-02-21T12:28:55;10.74;74.47
71206;SHT31;58935;54.498;18.544;2024-02-21T12:31:22;10.85;74.03
71206;SHT31;58935;54.498;18.544;2024-02-21T12:33:48;10.94;72.93
71206;SHT31;58935;54.498;18.544;2024-02-21T12:36:13;10.93;71.99
71206;SHT31;58935;54.498;18.544;2024-02-21T12:38:39;10.95;71.85
71206;SHT31;58935;54.498;18.544;2024-02-21T12:41:04;10.97;71.36
71206;SHT31;58935;54.498;18.544;2024-02-21T12:43:32;11.00;70.53
71206;SHT31;58935;54.498;18.544;2024-02-21T12:45:59;11.01;70.29
71206;SHT31;58935;54.498;18.544;2024-02-21T12:48:27;11.06;70.23
71206;SHT31;58935;54.498;18.544;2024-02-21T12:50:53;11.12;70.23
71206;SHT31;58935;54.498;18.544;2024-02-21T12:53:21;11.14;69.40
71206;SHT31;58935;54.498;18.544;2024-02-21T12:55:48;11.12;68.83
71206;SHT31;58935;54.498;18.544;2024-02-21T12:58:14;11.10;69.24
71206;SHT31;58935;54.498;18.544;2024-02-21T13:00:40;11.11;68.18
71206;SHT31;58935;54.498;18.544;2024-02-21T13:03:06;11.15;68.30
71206;SHT31;58935;54.498;18.544;2024-02-21T13:05:32;11.26;67.99
71206;SHT31;58935;54.498;18.544;2024-02-21T13:08:00;11.36;67.38
71206;SHT31;58935;54.498;18.544;2024-02-21T13:10:26;11.39;67.09
71206;SHT31;58935;54.498;18.544;2024-02-21T13:12:51;11.46;67.08
71206;SHT31;58935;54.498;18.544;2024-02-21T13:15:18;11.52;66.79
71206;SHT31;58935;54.498;18.544;2024-02-21T13:17:45;11.51;66.33
71206;SHT31;58935;54.498;18.544;2024-02-21T13:22:50;11.33;66.46
71206;SHT31;58935;54.498;18.544;2024-02-21T13:25:16;11.22;66.93
71206;SHT31;58935;54.498;18.544;2024-02-21T13:27:45;11.11;67.34
71206;SHT31;58935;54.498;18.544;2024-02-21T13:30:11;10.99;67.94
71206;SHT31;58935;54.498;18.544;2024-02-21T13:32:37;10.90;68.24
71206;SHT31;58935;54.498;18.544;2024-02-21T13:35:03;10.83;68.43
71206;SHT31;58935;54.498;18.544;2024-02-21T13:37:29;10.77;67.99
71206;SHT31;58935;54.498;18.544;2024-02-21T13:39:55;10.71;67.43
71206;SHT31;58935;54.498;18.544;2024-02-21T13:42:21;10.63;67.46
71206;SHT31;58935;54.498;18.544;2024-02-21T13:44:46;10.56;68.25
71206;SHT31;58935;54.498;18.544;2024-02-21T13:47:13;10.45;68.03
71206;SHT31;58935;54.498;18.544;2024-02-21T13:49:40;10.27;69.73
71206;SHT31;58935;54.498;18.544;2024-02-21T13:52:06;10.10;71.37
71206;SHT31;58935;54.498;18.544;2024-02-21T13:54:34;9.92;72.30
71206;SHT31;58935;54.498;18.544;2024-02-21T13:57:00;9.75;72.97
71206;SHT31;58935;54.498;18.544;2024-02-21T13:59:27;9.60;73.81
71206;SHT31;58935;54.498;18.544;2024-02-21T14:01:53;9.47;74.80
71206;SHT31;58935;54.498;18.544;2024-02-21T14:04:18;9.39;75.56
71206;SHT31;58935;54.498;18.544;2024-02-21T14:06:47;9.28;75.73
71206;SHT31;58935;54.498;18.544;2024-02-21T14:09:12;9.17;75.69
71206;SHT31;58935;54.498;18.544;2024-02-21T14:11:39;9.08;75.60
71206;SHT31;58935;54.498;18.544;2024-02-21T14:14:10;9.01;75.87
71206;SHT31;58935;54.498;18.544;2024-02-21T14:16:36;8.98;75.87
71206;SHT31;58935;54.498;18.544;2024-02-21T14:19:02;8.96;75.70
71206;SHT31;58935;54.498;18.544;2024-02-21T14:21:27;8.94;75.79
71206;SHT31;58935;54.498;18.544;2024-02-21T14:23:56;8.90;75.92
71206;SHT31;58935;54.498;18.544;2024-02-21T14:26:22;8.89;76.19
71206;SHT31;58935;54.498;18.544;2024-02-21T14:28:49;8.89;76.46
71206;SHT31;58935;54.498;18.544;2024-02-21T14:31:15;8.87;76.46
71206;SHT31;58935;54.498;18.544;2024-02-21T14:33:40;8.88;76.50
71206;SHT31;58935;54.498;18.544;2024-02-21T14:36:06;8.89;76.58
71206;SHT31;58935;54.498;18.544;2024-02-21T14:38:32;8.90;76.65
71206;SHT31;58935;54.498;18.544;2024-02-21T14:40:57;8.91;76.74
71206;SHT31;58935;54.498;18.544;2024-02-21T14:43:23;8.92;76.79
71206;SHT31;58935;54.498;18.544;2024-02-21T14:45:51;8.90;76.88
71206;SHT31;58935;54.498;18.544;2024-02-21T14:48:17;8.90;76.97
71206;SHT31;58935;54.498;18.544;2024-02-21T14:50:42;8.90;77.10
71206;SHT31;58935;54.498;18.544;2024-02-21T14:53:08;8.90;76.70
71206;SHT31;58935;54.498;18.544;2024-02-21T14:55:34;8.90;76.35
71206;SHT31;58935;54.498;18.544;2024-02-21T14:58:00;8.89;76.31
71206;SHT31;58935;54.498;18.544;2024-02-21T15:00:25;8.88;76.39
71206;SHT31;58935;54.498;18.544;2024-02-21T15:02:57;8.86;76.71
71206;SHT31;58935;54.498;18.544;2024-02-21T15:05:22;8.85;76.91
71206;SHT31;58935;54.498;18.544;2024-02-21T15:07:49;8.80;77.15
71206;SHT31;58935;54.498;18.544;2024-02-21T15:10:15;8.73;77.53
71206;SHT31;58935;54.498;18.544;2024-02-21T15:12:43;8.64;77.91
71206;SHT31;58935;54.498;18.544;2024-02-21T15:15:09;8.50;77.60
71206;SHT31;58935;54.498;18.544;2024-02-21T15:17:38;8.36;77.76
71206;SHT31;58935;54.498;18.544;2024-02-21T15:20:03;8.26;77.88
71206;SHT31;58935;54.498;18.544;2024-02-21T15:22:32;8.18;78.28
71206;SHT31;58935;54.498;18.544;2024-02-21T15:24:59;8.10;78.55
71206;SHT31;58935;54.498;18.544;2024-02-21T15:27:25;8.05;78.70
71206;SHT31;58935;54.498;18.544;2024-02-21T15:29:53;7.98;78.57
71206;SHT31;58935;54.498;18.544;2024-02-21T15:32:22;7.91;79.09
71206;SHT31;58935;54.498;18.544;2024-02-21T15:34:48;7.85;79.36
71206;SHT31;58935;54.498;18.544;2024-02-21T15:37:18;7.77;79.53
71206;SHT31;58935;54.498;18.544;2024-02-21T15:39:44;7.71;79.77
71206;SHT31;58935;54.498;18.544;2024-02-21T15:42:10;7.65;79.83
71206;SHT31;58935;54.498;18.544;2024-02-21T15:44:36;7.63;80.16
71206;SHT31;58935;54.498;18.544;2024-02-21T15:47:02;7.58;80.50
71206;SHT31;58935;54.498;18.544;2024-02-21T15:49:27;7.55;80.71
71206;SHT31;58935;54.498;18.544;2024-02-21T15:51:53;7.51;80.74
71206;SHT31;58935;54.498;18.544;2024-02-21T15:54:22;7.49;80.81
71206;SHT31;58935;54.498;18.544;2024-02-21T15:56:47;7.48;80.93
71206;SHT31;58935;54.498;18.544;2024-02-21T15:59:15;7.50;80.96
71206;SHT31;58935;54.498;18.544;2024-02-21T16:01:40;7.51;81.10
71206;SHT31;58935;54.498;18.544;2024-02-21T16:04:08;7.51;81.21
71206;SHT31;58935;54.498;18.544;2024-02-21T16:06:34;7.51;81.33
71206;SHT31;58935;54.498;18.544;2024-02-21T16:08:59;7.51;81.52
71206;SHT31;58935;54.498;18.544;2024-02-21T16:11:25;7.49;81.77
71206;SHT31;58935;54.498;18.544;2024-02-21T16:13:52;7.48;81.78
71206;SHT31;58935;54.498;18.544;2024-02-21T16:16:17;7.47;81.73
71206;SHT31;58935;54.498;18.544;2024-02-21T16:18:43;7.45;81.85
71206;SHT31;58935;54.498;18.544;2024-02-21T16:21:11;7.42;81.84